sensor_id;sensor_type;location;lat;lon;timestamp;P1;durP1;ratioP1;P2;durP2;ratioP2
71916;SDS011;59793;46.506;6.674;2024-03-23T00:55:41;2.92;;;1.70;;
71916;SDS011;59793;46.506;6.674;2024-03-23T00:58:07;6.47;;;2.08;;
71916;SDS011;59793;46.506;6.674;2024-03-23T01:00:32;5.50;;;2.23;;
71916;SDS011;59793;46.506;6.674;2024-03-23T01:02:58;4.53;;;2.40;;
71916;SDS011;59793;46.506;6.674;2024-03-23T01:05:23;7.33;;;2.07;;
71916;SDS011;59793;46.506;6.674;2024-03-23T01:07:48;9.77;;;1.83;;
71916;SDS011;59793;46.506;6.674;2024-03-23T01:10:14;3.90;;;1.90;;
71916;SDS011;59793;46.506;6.674;2024-03-23T01:12:39;3.50;;;1.90;;
71916;SDS011;59793;46.506;6.674;2024-03-23T01:15:04;4.10;;;1.90;;
71916;SDS011;59793;46.506;6.674;2024-03-23T01:17:30;5.03;;;1.90;;
71916;SDS011;59793;46.506;6.674;2024-03-23T01:19:55;4.40;;;1.97;;
71916;SDS011;59793;46.506;6.674;2024-03-23T01:22:21;4.63;;;2.00;;
71916;SDS011;59793;46.506;6.674;2024-03-23T01:24:46;4.50;;;2.17;;
71916;SDS011;59793;46.506;6.674;2024-03-23T01:27:12;8.10;;;2.17;;
71916;SDS011;59793;46.506;6.674;2024-03-23T01:29:37;4.97;;;2.30;;
71916;SDS011;59793;46.506;6.674;2024-03-23T01:32:03;8.85;;;2.00;;
71916;SDS011;59793;46.506;6.674;2024-03-23T01:34:29;5.27;;;2.23;;
71916;SDS011;59793;46.506;6.674;2024-03-23T01:36:54;5.87;;;1.93;;
71916;SDS011;59793;46.506;6.674;2024-03-23T01:39:20;4.87;;;1.67;;
71916;SDS011;59793;46.506;6.674;2024-03-23T01:41:45;3.73;;;1.70;;
71916;SDS011;59793;46.506;6.674;2024-03-23T01:44:10;4.07;;;1.93;;
71916;SDS011;59793;46.506;6.674;2024-03-23T01:46:39;5.13;;;2.40;;
71916;SDS011;59793;46.506;6.674;2024-03-23T01:49:06;4.90;;;1.90;;
71916;SDS011;59793;46.506;6.674;2024-03-23T01:51:32;3.63;;;2.20;;
71916;SDS011;59793;46.506;6.674;2024-03-23T01:53:58;3.10;;;1.53;;
71916;SDS011;59793;46.506;6.674;2024-03-23T01:56:27;5.30;;;2.05;;
71916;SDS011;59793;46.506;6.674;2024-03-23T01:58:53;6.07;;;2.47;;
71916;SDS011;59793;46.506;6.674;2024-03-23T02:01:19;7.30;;;2.50;;
71916;SDS011;59793;46.506;6.674;2024-03-23T02:03:44;5.17;;;1.83;;
71916;SDS011;59793;46.506;6.674;2024-03-23T02:06:09;3.33;;;1.70;;
71916;SDS011;59793;46.506;6.674;2024-03-23T02:08:35;6.10;;;1.83;;
71916;SDS011;59793;46.506;6.674;2024-03-23T02:11:00;6.60;;;2.10;;
71916;SDS011;59793;46.506;6.674;2024-03-23T02:13:25;5.13;;;1.73;;
71916;SDS011;59793;46.506;6.674;2024-03-23T02:15:51;6.30;;;1.90;;
71916;SDS011;59793;46.506;6.674;2024-03-23T02:18:17;3.37;;;1.77;;
71916;SDS011;59793;46.506;6.674;2024-03-23T02:20:42;5.50;;;2.30;;
71916;SDS011;59793;46.506;6.674;2024-03-23T02:23:14;5.57;;;1.90;;
71916;SDS011;59793;46.506;6.674;2024-03-23T02:25:40;3.28;;;2.00;;
71916;SDS011;59793;46.506;6.674;2024-03-23T02:28:05;3.93;;;1.90;;
71916;SDS011;59793;46.506;6.674;2024-03-23T02:30:31;4.50;;;1.70;;
71916;SDS011;59793;46.506;6.674;2024-03-23T02:32:56;5.33;;;1.73;;
71916;SDS011;59793;46.506;6.674;2024-03-23T02:35:22;4.10;;;1.70;;
71916;SDS011;59793;46.506;6.674;2024-03-23T02:37:47;3.60;;;1.53;;
71916;SDS011;59793;46.506;6.674;2024-03-23T02:40:16;8.38;;;2.22;;
71916;SDS011;59793;46.506;6.674;2024-03-23T02:42:42;7.45;;;2.40;;
71916;SDS011;59793;46.506;6.674;2024-03-23T02:45:07;4.87;;;2.27;;
71916;SDS011;59793;46.506;6.674;2024-03-23T02:47:33;5.37;;;1.90;;
71916;SDS011;59793;46.506;6.674;2024-03-23T02:49:58;6.70;;;1.90;;
71916;SDS011;59793;46.506;6.674;2024-03-23T02:52:23;4.77;;;1.97;;
71916;SDS011;59793;46.506;6.674;2024-03-23T02:54:49;4.87;;;1.83;;
71916;SDS011;59793;46.506;6.674;2024-03-23T02:57:14;6.10;;;2.17;;
71916;SDS011;59793;46.506;6.674;2024-03-23T02:59:40;2.87;;;1.63;;
71916;SDS011;59793;46.506;6.674;2024-03-23T03:02:05;3.13;;;1.67;;
71916;SDS011;59793;46.506;6.674;2024-03-23T03:04:31;2.90;;;1.60;;
71916;SDS011;59793;46.506;6.674;2024-03-23T03:06:57;9.43;;;2.10;;
71916;SDS011;59793;46.506;6.674;2024-03-23T03:09:22;3.23;;;2.03;;
71916;SDS011;59793;46.506;6.674;2024-03-23T03:11:48;5.07;;;2.00;;
71916;SDS011;59793;46.506;6.674;2024-03-23T03:14:13;4.87;;;2.07;;
71916;SDS011;59793;46.506;6.674;2024-03-23T03:16:38;5.80;;;2.17;;
71916;SDS011;59793;46.506;6.674;2024-03-23T03:19:04;7.13;;;1.53;;
71916;SDS011;59793;46.506;6.674;2024-03-23T03:21:29;3.83;;;1.70;;
71916;SDS011;59793;46.506;6.674;2024-03-23T03:23:54;2.50;;;1.73;;
71916;SDS011;59793;46.506;6.674;2024-03-23T03:26:21;6.72;;;2.15;;
71916;SDS011;59793;46.506;6.674;2024-03-23T03:28:47;4.35;;;1.48;;
71916;SDS011;59793;46.506;6.674;2024-03-23T03:31:16;4.53;;;1.80;;
71916;SDS011;59793;46.506;6.674;2024-03-23T03:33:43;3.17;;;1.67;;
71916;SDS011;59793;46.506;6.674;2024-03-23T03:36:08;3.73;;;2.00;;
71916;SDS011;59793;46.506;6.674;2024-03-23T03:38:34;3.53;;;1.70;;
71916;SDS011;59793;46.506;6.674;2024-03-23T03:41:03;4.22;;;1.52;;
71916;SDS011;59793;46.506;6.674;2024-03-23T03:43:28;4.73;;;1.93;;
71916;SDS011;59793;46.506;6.674;2024-03-23T03:45:54;10.13;;;2.60;;
71916;SDS011;59793;46.506;6.674;2024-03-23T03:48:20;3.70;;;1.70;;
71916;SDS011;59793;46.506;6.674;2024-03-23T03:50:45;4.77;;;2.30;;
71916;SDS011;59793;46.506;6.674;2024-03-23T03:53:11;3.60;;;1.47;;
71916;SDS011;59793;46.506;6.674;2024-03-23T03:55:36;5.20;;;2.00;;
71916;SDS011;59793;46.506;6.674;2024-03-23T03:58:02;3.43;;;2.20;;
71916;SDS011;59793;46.506;6.674;2024-03-23T04:00:27;4.50;;;2.13;;
71916;SDS011;59793;46.506;6.674;2024-03-23T04:02:53;7.43;;;1.80;;
71916;SDS011;59793;46.506;6.674;2024-03-23T04:05:18;9.13;;;2.20;;
71916;SDS011;59793;46.506;6.674;2024-03-23T04:07:44;4.82;;;2.00;;
71916;SDS011;59793;46.506;6.674;2024-03-23T04:10:10;4.70;;;1.90;;
71916;SDS011;59793;46.506;6.674;2024-03-23T04:12:36;6.20;;;1.80;;
71916;SDS011;59793;46.506;6.674;2024-03-23T04:15:01;3.67;;;1.90;;
71916;SDS011;59793;46.506;6.674;2024-03-23T04:17:29;4.35;;;1.80;;
71916;SDS011;59793;46.506;6.674;2024-03-23T04:19:59;3.67;;;2.13;;
71916;SDS011;59793;46.506;6.674;2024-03-23T04:22:25;5.20;;;2.58;;
71916;SDS011;59793;46.506;6.674;2024-03-23T04:24:54;7.03;;;2.37;;
71916;SDS011;59793;46.506;6.674;2024-03-23T04:27:20;7.50;;;2.25;;
71916;SDS011;59793;46.506;6.674;2024-03-23T04:29:49;6.17;;;2.67;;
71916;SDS011;59793;46.506;6.674;2024-03-23T04:32:15;6.30;;;2.80;;
71916;SDS011;59793;46.506;6.674;2024-03-23T04:34:41;4.30;;;2.13;;
71916;SDS011;59793;46.506;6.674;2024-03-23T04:37:07;8.67;;;2.90;;
71916;SDS011;59793;46.506;6.674;2024-03-23T04:39:32;6.30;;;2.60;;
71916;SDS011;59793;46.506;6.674;2024-03-23T04:41:58;7.33;;;2.80;;
71916;SDS011;59793;46.506;6.674;2024-03-23T04:44:23;6.83;;;3.00;;
71916;SDS011;59793;46.506;6.674;2024-03-23T04:46:49;9.23;;;3.33;;
71916;SDS011;59793;46.506;6.674;2024-03-23T04:49:14;6.47;;;3.17;;
71916;SDS011;59793;46.506;6.674;2024-03-23T04:51:39;5.53;;;2.70;;
71916;SDS011;59793;46.506;6.674;2024-03-23T04:54:10;7.80;;;3.08;;
71916;SDS011;59793;46.506;6.674;2024-03-23T04:56:36;6.40;;;2.77;;
71916;SDS011;59793;46.506;6.674;2024-03-23T04:59:01;5.60;;;3.23;;
71916;SDS011;59793;46.506;6.674;2024-03-23T05:01:29;10.38;;;2.53;;
71916;SDS011;59793;46.506;6.674;2024-03-23T05:03:55;5.97;;;3.03;;
71916;SDS011;59793;46.506;6.674;2024-03-23T05:06:22;8.70;;;3.45;;
71916;SDS011;59793;46.506;6.674;2024-03-23T05:08:47;7.73;;;3.47;;
71916;SDS011;59793;46.506;6.674;2024-03-23T05:11:13;11.47;;;4.50;;
71916;SDS011;59793;46.506;6.674;2024-03-23T05:13:38;7.55;;;4.05;;
71916;SDS011;59793;46.506;6.674;2024-03-23T05:16:03;9.13;;;3.97;;
71916;SDS011;59793;46.506;6.674;2024-03-23T05:18:29;7.43;;;3.90;;
71916;SDS011;59793;46.506;6.674;2024-03-23T05:20:57;7.07;;;4.23;;
71916;SDS011;59793;46.506;6.674;2024-03-23T05:23:23;15.02;;;5.00;;
71916;SDS011;59793;46.506;6.674;2024-03-23T05:25:49;5.17;;;3.20;;
71916;SDS011;59793;46.506;6.674;2024-03-23T05:28:14;6.73;;;3.87;;
71916;SDS011;59793;46.506;6.674;2024-03-23T05:30:40;6.17;;;3.20;;
71916;SDS011;59793;46.506;6.674;2024-03-23T05:33:05;6.43;;;3.57;;
71916;SDS011;59793;46.506;6.674;2024-03-23T05:35:31;4.53;;;3.40;;
71916;SDS011;59793;46.506;6.674;2024-03-23T05:37:58;9.68;;;3.13;;
71916;SDS011;59793;46.506;6.674;2024-03-23T05:40:26;6.07;;;3.75;;
71916;SDS011;59793;46.506;6.674;2024-03-23T05:42:51;7.13;;;3.33;;
71916;SDS011;59793;46.506;6.674;2024-03-23T05:45:23;8.80;;;4.00;;
71916;SDS011;59793;46.506;6.674;2024-03-23T05:47:48;7.23;;;4.23;;
71916;SDS011;59793;46.506;6.674;2024-03-23T05:50:14;6.53;;;3.57;;
71916;SDS011;59793;46.506;6.674;2024-03-23T05:52:39;5.57;;;3.90;;
71916;SDS011;59793;46.506;6.674;2024-03-23T05:55:05;8.13;;;3.23;;
71916;SDS011;59793;46.506;6.674;2024-03-23T05:57:31;5.70;;;3.63;;
71916;SDS011;59793;46.506;6.674;2024-03-23T05:59:56;5.47;;;3.67;;
71916;SDS011;59793;46.506;6.674;2024-03-23T06:02:22;9.00;;;3.27;;
71916;SDS011;59793;46.506;6.674;2024-03-23T06:04:49;5.45;;;3.50;;
71916;SDS011;59793;46.506;6.674;2024-03-23T06:07:14;5.23;;;3.03;;
71916;SDS011;59793;46.506;6.674;2024-03-23T06:09:42;9.73;;;2.70;;
71916;SDS011;59793;46.506;6.674;2024-03-23T06:12:08;3.88;;;2.50;;
71916;SDS011;59793;46.506;6.674;2024-03-23T06:14:35;6.40;;;2.97;;
71916;SDS011;59793;46.506;6.674;2024-03-23T06:17:00;4.13;;;2.30;;
71916;SDS011;59793;46.506;6.674;2024-03-23T06:19:27;3.93;;;2.53;;
71916;SDS011;59793;46.506;6.674;2024-03-23T06:26:47;4.47;;;2.60;;
71916;SDS011;59793;46.506;6.674;2024-03-23T06:29:14;8.53;;;2.57;;
71916;SDS011;59793;46.506;6.674;2024-03-23T06:31:39;4.07;;;2.38;;
71916;SDS011;59793;46.506;6.674;2024-03-23T06:34:04;4.17;;;1.90;;
71916;SDS011;59793;46.506;6.674;2024-03-23T06:36:30;3.63;;;1.93;;
71916;SDS011;59793;46.506;6.674;2024-03-23T06:38:56;6.67;;;2.07;;
71916;SDS011;59793;46.506;6.674;2024-03-23T06:41:21;7.90;;;2.30;;
71916;SDS011;59793;46.506;6.674;2024-03-23T06:43:47;3.10;;;1.77;;
71916;SDS011;59793;46.506;6.674;2024-03-23T06:46:14;2.77;;;1.80;;
71916;SDS011;59793;46.506;6.674;2024-03-23T06:48:41;4.10;;;2.08;;
71916;SDS011;59793;46.506;6.674;2024-03-23T06:51:06;3.53;;;1.90;;
71916;SDS011;59793;46.506;6.674;2024-03-23T06:53:34;7.63;;;2.55;;
71916;SDS011;59793;46.506;6.674;2024-03-23T06:55:59;3.67;;;1.83;;
71916;SDS011;59793;46.506;6.674;2024-03-23T06:58:26;2.45;;;1.92;;
71916;SDS011;59793;46.506;6.674;2024-03-23T07:00:51;3.57;;;2.00;;
71916;SDS011;59793;46.506;6.674;2024-03-23T07:03:16;4.27;;;2.07;;
71916;SDS011;59793;46.506;6.674;2024-03-23T07:05:42;8.75;;;2.25;;
71916;SDS011;59793;46.506;6.674;2024-03-23T07:08:08;3.97;;;1.83;;
71916;SDS011;59793;46.506;6.674;2024-03-23T07:10:34;7.10;;;2.27;;
71916;SDS011;59793;46.506;6.674;2024-03-23T07:13:00;3.30;;;2.03;;
71916;SDS011;59793;46.506;6.674;2024-03-23T07:15:26;7.07;;;2.50;;
71916;SDS011;59793;46.506;6.674;2024-03-23T07:17:51;4.73;;;2.50;;
71916;SDS011;59793;46.506;6.674;2024-03-23T07:20:16;5.03;;;2.27;;
71916;SDS011;59793;46.506;6.674;2024-03-23T07:22:42;4.80;;;2.10;;
71916;SDS011;59793;46.506;6.674;2024-03-23T07:25:10;5.30;;;1.98;;
71916;SDS011;59793;46.506;6.674;2024-03-23T07:27:35;2.53;;;1.63;;
71916;SDS011;59793;46.506;6.674;2024-03-23T07:30:01;3.23;;;1.80;;
71916;SDS011;59793;46.506;6.674;2024-03-23T07:32:26;3.15;;;2.13;;
71916;SDS011;59793;46.506;6.674;2024-03-23T07:34:52;6.77;;;1.57;;
71916;SDS011;59793;46.506;6.674;2024-03-23T07:37:18;1.53;;;1.20;;
71916;SDS011;59793;46.506;6.674;2024-03-23T07:39:43;5.13;;;1.43;;
71916;SDS011;59793;46.506;6.674;2024-03-23T07:42:08;1.50;;;1.00;;
71916;SDS011;59793;46.506;6.674;2024-03-23T07:44:34;2.30;;;1.20;;
71916;SDS011;59793;46.506;6.674;2024-03-23T07:47:00;2.90;;;1.00;;
71916;SDS011;59793;46.506;6.674;2024-03-23T07:49:27;0.98;;;0.70;;
71916;SDS011;59793;46.506;6.674;2024-03-23T07:51:52;0.87;;;0.50;;
71916;SDS011;59793;46.506;6.674;2024-03-23T07:54:18;1.13;;;0.80;;
71916;SDS011;59793;46.506;6.674;2024-03-23T07:56:44;1.80;;;1.53;;
71916;SDS011;59793;46.506;6.674;2024-03-23T07:59:09;1.07;;;0.70;;
71916;SDS011;59793;46.506;6.674;2024-03-23T08:01:37;1.58;;;0.63;;
71916;SDS011;59793;46.506;6.674;2024-03-23T08:04:02;0.60;;;0.50;;
71916;SDS011;59793;46.506;6.674;2024-03-23T08:06:28;0.50;;;0.50;;
71916;SDS011;59793;46.506;6.674;2024-03-23T08:08:58;1.00;;;0.50;;
71916;SDS011;59793;46.506;6.674;2024-03-23T08:11:27;0.75;;;0.50;;
71916;SDS011;59793;46.506;6.674;2024-03-23T08:13:54;0.30;;;0.28;;
71916;SDS011;59793;46.506;6.674;2024-03-23T08:16:22;0.75;;;0.30;;
71916;SDS011;59793;46.506;6.674;2024-03-23T08:18:50;0.23;;;0.23;;
71916;SDS011;59793;46.506;6.674;2024-03-23T08:21:16;0.30;;;0.30;;
71916;SDS011;59793;46.506;6.674;2024-03-23T08:23:43;0.47;;;0.40;;
71916;SDS011;59793;46.506;6.674;2024-03-23T08:26:11;0.50;;;0.37;;
71916;SDS011;59793;46.506;6.674;2024-03-23T08:28:37;1.08;;;0.40;;
71916;SDS011;59793;46.506;6.674;2024-03-23T08:31:05;1.38;;;0.55;;
71916;SDS011;59793;46.506;6.674;2024-03-23T08:33:35;0.55;;;0.50;;
71916;SDS011;59793;46.506;6.674;2024-03-23T08:36:05;0.40;;;0.40;;
71916;SDS011;59793;46.506;6.674;2024-03-23T08:38:37;1.25;;;0.40;;
71916;SDS011;59793;46.506;6.674;2024-03-23T08:41:06;0.30;;;0.30;;
71916;SDS011;59793;46.506;6.674;2024-03-23T08:43:34;2.95;;;0.73;;
71916;SDS011;59793;46.506;6.674;2024-03-23T08:46:10;1.85;;;0.50;;
71916;SDS011;59793;46.506;6.674;2024-03-23T08:48:38;1.85;;;1.00;;
71916;SDS011;59793;46.506;6.674;2024-03-23T08:51:27;1.13;;;0.40;;
71916;SDS011;59793;46.506;6.674;2024-03-23T08:53:52;0.50;;;0.35;;
71916;SDS011;59793;46.506;6.674;2024-03-23T08:56:18;3.00;;;0.93;;
71916;SDS011;59793;46.506;6.674;2024-03-23T08:58:44;1.77;;;0.60;;
71916;SDS011;59793;46.506;6.674;2024-03-23T09:01:11;0.93;;;0.50;;
71916;SDS011;59793;46.506;6.674;2024-03-23T09:03:40;0.50;;;0.50;;
71916;SDS011;59793;46.506;6.674;2024-03-23T09:06:09;1.53;;;0.50;;
71916;SDS011;59793;46.506;6.674;2024-03-23T09:08:37;0.80;;;0.50;;
71916;SDS011;59793;46.506;6.674;2024-03-23T09:11:04;1.67;;;0.50;;
71916;SDS011;59793;46.506;6.674;2024-03-23T09:15:57;0.90;;;0.50;;
71916;SDS011;59793;46.506;6.674;2024-03-23T09:18:22;6.77;;;1.23;;
71916;SDS011;59793;46.506;6.674;2024-03-23T09:20:48;6.88;;;1.10;;
71916;SDS011;59793;46.506;6.674;2024-03-23T09:23:13;5.20;;;1.08;;
71916;SDS011;59793;46.506;6.674;2024-03-23T09:25:39;1.23;;;0.50;;
71916;SDS011;59793;46.506;6.674;2024-03-23T09:28:05;0.90;;;0.70;;
71916;SDS011;59793;46.506;6.674;2024-03-23T09:32:58;3.92;;;0.95;;
71916;SDS011;59793;46.506;6.674;2024-03-23T09:35:24;4.80;;;1.10;;
71916;SDS011;59793;46.506;6.674;2024-03-23T09:37:50;3.50;;;1.90;;
71916;SDS011;59793;46.506;6.674;2024-03-23T09:40:15;1.92;;;0.77;;
71916;SDS011;59793;46.506;6.674;2024-03-23T09:42:41;6.00;;;0.90;;
71916;SDS011;59793;46.506;6.674;2024-03-23T09:45:19;3.90;;;0.80;;
71916;SDS011;59793;46.506;6.674;2024-03-23T09:47:48;1.77;;;0.90;;
71916;SDS011;59793;46.506;6.674;2024-03-23T09:50:15;5.85;;;0.88;;
71916;SDS011;59793;46.506;6.674;2024-03-23T09:52:43;2.05;;;0.80;;
71916;SDS011;59793;46.506;6.674;2024-03-23T09:55:11;4.43;;;0.90;;
71916;SDS011;59793;46.506;6.674;2024-03-23T09:57:40;7.82;;;1.40;;
71916;SDS011;59793;46.506;6.674;2024-03-23T10:00:07;3.03;;;0.90;;
71916;SDS011;59793;46.506;6.674;2024-03-23T10:02:34;3.45;;;0.98;;
71916;SDS011;59793;46.506;6.674;2024-03-23T10:07:26;3.55;;;0.88;;
71916;SDS011;59793;46.506;6.674;2024-03-23T10:09:53;2.38;;;0.82;;
71916;SDS011;59793;46.506;6.674;2024-03-23T10:12:19;4.60;;;1.30;;
71916;SDS011;59793;46.506;6.674;2024-03-23T10:14:45;4.13;;;1.20;;
71916;SDS011;59793;46.506;6.674;2024-03-23T10:19:49;5.43;;;1.60;;
71916;SDS011;59793;46.506;6.674;2024-03-23T10:22:19;4.78;;;1.58;;
71916;SDS011;59793;46.506;6.674;2024-03-23T10:24:46;4.05;;;1.38;;
71916;SDS011;59793;46.506;6.674;2024-03-23T10:27:15;7.20;;;1.67;;
71916;SDS011;59793;46.506;6.674;2024-03-23T10:29:49;9.38;;;1.83;;
71916;SDS011;59793;46.506;6.674;2024-03-23T10:32:18;4.17;;;1.60;;
71916;SDS011;59793;46.506;6.674;2024-03-23T10:34:43;3.28;;;1.30;;
71916;SDS011;59793;46.506;6.674;2024-03-23T10:37:10;9.20;;;1.70;;
71916;SDS011;59793;46.506;6.674;2024-03-23T10:39:39;6.40;;;1.20;;
71916;SDS011;59793;46.506;6.674;2024-03-23T10:42:06;6.47;;;1.35;;
71916;SDS011;59793;46.506;6.674;2024-03-23T10:46:58;5.88;;;1.33;;
71916;SDS011;59793;46.506;6.674;2024-03-23T10:49:31;4.72;;;1.38;;
71916;SDS011;59793;46.506;6.674;2024-03-23T10:52:00;9.05;;;1.63;;
71916;SDS011;59793;46.506;6.674;2024-03-23T10:54:26;3.50;;;1.15;;
71916;SDS011;59793;46.506;6.674;2024-03-23T10:57:01;6.13;;;1.63;;
71916;SDS011;59793;46.506;6.674;2024-03-23T10:59:31;8.98;;;1.77;;
71916;SDS011;59793;46.506;6.674;2024-03-23T11:01:58;4.68;;;1.13;;
71916;SDS011;59793;46.506;6.674;2024-03-23T11:04:33;7.95;;;1.50;;
71916;SDS011;59793;46.506;6.674;2024-03-23T11:06:59;7.75;;;1.75;;
71916;SDS011;59793;46.506;6.674;2024-03-23T11:09:43;2.83;;;1.20;;
71916;SDS011;59793;46.506;6.674;2024-03-23T11:12:24;7.82;;;1.70;;
71916;SDS011;59793;46.506;6.674;2024-03-23T11:15:03;6.60;;;1.83;;
71916;SDS011;59793;46.506;6.674;2024-03-23T11:17:39;7.90;;;1.90;;
71916;SDS011;59793;46.506;6.674;2024-03-23T11:20:04;9.87;;;1.70;;
71916;SDS011;59793;46.506;6.674;2024-03-23T11:22:38;6.90;;;1.70;;
71916;SDS011;59793;46.506;6.674;2024-03-23T11:25:14;11.70;;;1.97;;
71916;SDS011;59793;46.506;6.674;2024-03-23T11:27:49;4.38;;;1.33;;
71916;SDS011;59793;46.506;6.674;2024-03-23T11:30:22;7.53;;;1.83;;
71916;SDS011;59793;46.506;6.674;2024-03-23T11:32:54;11.02;;;2.13;;
71916;SDS011;59793;46.506;6.674;2024-03-23T11:35:34;7.38;;;2.05;;
71916;SDS011;59793;46.506;6.674;2024-03-23T11:43:09;4.70;;;1.30;;
71916;SDS011;59793;46.506;6.674;2024-03-23T11:45:37;8.13;;;1.58;;
71916;SDS011;59793;46.506;6.674;2024-03-23T11:48:11;10.52;;;1.80;;
71916;SDS011;59793;46.506;6.674;2024-03-23T11:50:39;6.40;;;1.80;;
71916;SDS011;59793;46.506;6.674;2024-03-23T11:53:16;4.35;;;1.73;;
71916;SDS011;59793;46.506;6.674;2024-03-23T12:00:36;6.38;;;1.70;;
71916;SDS011;59793;46.506;6.674;2024-03-23T12:03:02;4.95;;;1.17;;
71916;SDS011;59793;46.506;6.674;2024-03-23T12:05:28;7.60;;;2.23;;
71916;SDS011;59793;46.506;6.674;2024-03-23T12:07:54;8.07;;;1.65;;
71916;SDS011;59793;46.506;6.674;2024-03-23T12:10:20;7.27;;;1.57;;
71916;SDS011;59793;46.506;6.674;2024-03-23T12:12:45;6.23;;;1.47;;
71916;SDS011;59793;46.506;6.674;2024-03-23T12:15:10;7.63;;;2.03;;
71916;SDS011;59793;46.506;6.674;2024-03-23T12:17:37;9.50;;;1.75;;
71916;SDS011;59793;46.506;6.674;2024-03-23T12:20:03;6.17;;;1.80;;
71916;SDS011;59793;46.506;6.674;2024-03-23T12:22:30;7.03;;;1.92;;
71916;SDS011;59793;46.506;6.674;2024-03-23T12:27:22;6.47;;;1.73;;
71916;SDS011;59793;46.506;6.674;2024-03-23T12:29:47;7.77;;;1.70;;
71916;SDS011;59793;46.506;6.674;2024-03-23T12:32:13;9.40;;;2.00;;
71916;SDS011;59793;46.506;6.674;2024-03-23T12:34:39;7.40;;;1.52;;
71916;SDS011;59793;46.506;6.674;2024-03-23T12:37:05;11.13;;;2.30;;
71916;SDS011;59793;46.506;6.674;2024-03-23T12:39:34;8.80;;;2.15;;
71916;SDS011;59793;46.506;6.674;2024-03-23T12:42:00;6.50;;;1.80;;
71916;SDS011;59793;46.506;6.674;2024-03-23T12:44:28;7.70;;;1.60;;
71916;SDS011;59793;46.506;6.674;2024-03-23T12:46:54;6.32;;;2.05;;
71916;SDS011;59793;46.506;6.674;2024-03-23T12:49:20;6.93;;;1.80;;
71916;SDS011;59793;46.506;6.674;2024-03-23T12:51:55;5.87;;;1.37;;
71916;SDS011;59793;46.506;6.674;2024-03-23T12:54:22;7.20;;;1.85;;
71916;SDS011;59793;46.506;6.674;2024-03-23T12:56:48;10.68;;;2.17;;
71916;SDS011;59793;46.506;6.674;2024-03-23T12:59:13;5.00;;;1.77;;
71916;SDS011;59793;46.506;6.674;2024-03-23T13:01:39;6.63;;;1.50;;
71916;SDS011;59793;46.506;6.674;2024-03-23T13:04:04;8.37;;;1.57;;
71916;SDS011;59793;46.506;6.674;2024-03-23T13:06:30;7.57;;;1.80;;
71916;SDS011;59793;46.506;6.674;2024-03-23T13:09:02;5.03;;;1.17;;
71916;SDS011;59793;46.506;6.674;2024-03-23T13:11:28;8.13;;;2.03;;
71916;SDS011;59793;46.506;6.674;2024-03-23T13:13:54;4.97;;;1.20;;
71916;SDS011;59793;46.506;6.674;2024-03-23T13:16:20;4.00;;;1.23;;
71916;SDS011;59793;46.506;6.674;2024-03-23T13:18:45;6.17;;;1.40;;
71916;SDS011;59793;46.506;6.674;2024-03-23T13:21:10;6.60;;;1.30;;
71916;SDS011;59793;46.506;6.674;2024-03-23T13:23:36;7.70;;;1.70;;
71916;SDS011;59793;46.506;6.674;2024-03-23T13:26:07;4.50;;;1.15;;
71916;SDS011;59793;46.506;6.674;2024-03-23T13:28:32;4.60;;;1.40;;
71916;SDS011;59793;46.506;6.674;2024-03-23T13:30:58;6.30;;;1.60;;
71916;SDS011;59793;46.506;6.674;2024-03-23T13:33:28;8.55;;;1.70;;
71916;SDS011;59793;46.506;6.674;2024-03-23T13:35:55;6.40;;;2.00;;
71916;SDS011;59793;46.506;6.674;2024-03-23T13:38:23;7.68;;;1.83;;
71916;SDS011;59793;46.506;6.674;2024-03-23T13:41:01;8.65;;;1.58;;
71916;SDS011;59793;46.506;6.674;2024-03-23T13:43:27;5.50;;;1.40;;
71916;SDS011;59793;46.506;6.674;2024-03-23T13:45:53;3.80;;;1.10;;
71916;SDS011;59793;46.506;6.674;2024-03-23T13:48:20;5.57;;;1.38;;
71916;SDS011;59793;46.506;6.674;2024-03-23T13:53:13;7.68;;;1.75;;
71916;SDS011;59793;46.506;6.674;2024-03-23T13:55:45;4.37;;;1.03;;
71916;SDS011;59793;46.506;6.674;2024-03-23T13:58:13;6.03;;;2.05;;
71916;SDS011;59793;46.506;6.674;2024-03-23T14:00:38;7.17;;;1.60;;
71916;SDS011;59793;46.506;6.674;2024-03-23T14:03:03;7.20;;;1.53;;
71916;SDS011;59793;46.506;6.674;2024-03-23T14:05:29;8.77;;;1.60;;
71916;SDS011;59793;46.506;6.674;2024-03-23T14:07:54;4.50;;;1.17;;
71916;SDS011;59793;46.506;6.674;2024-03-23T14:10:19;5.70;;;1.43;;
71916;SDS011;59793;46.506;6.674;2024-03-23T14:12:45;6.50;;;1.43;;
71916;SDS011;59793;46.506;6.674;2024-03-23T14:15:10;6.23;;;1.70;;
71916;SDS011;59793;46.506;6.674;2024-03-23T14:17:35;4.53;;;1.50;;
71916;SDS011;59793;46.506;6.674;2024-03-23T14:20:01;6.47;;;1.20;;
71916;SDS011;59793;46.506;6.674;2024-03-23T14:22:27;7.63;;;1.80;;
71916;SDS011;59793;46.506;6.674;2024-03-23T14:24:53;5.45;;;1.40;;
71916;SDS011;59793;46.506;6.674;2024-03-23T14:27:18;6.07;;;1.50;;
71916;SDS011;59793;46.506;6.674;2024-03-23T14:29:47;5.43;;;1.50;;
71916;SDS011;59793;46.506;6.674;2024-03-23T14:32:13;3.17;;;1.30;;
71916;SDS011;59793;46.506;6.674;2024-03-23T14:34:39;5.40;;;1.88;;
71916;SDS011;59793;46.506;6.674;2024-03-23T14:37:05;9.80;;;1.80;;
71916;SDS011;59793;46.506;6.674;2024-03-23T14:39:31;3.75;;;1.17;;
71916;SDS011;59793;46.506;6.674;2024-03-23T14:41:59;9.25;;;1.58;;
71916;SDS011;59793;46.506;6.674;2024-03-23T14:44:24;7.87;;;1.60;;
71916;SDS011;59793;46.506;6.674;2024-03-23T14:46:50;4.87;;;1.43;;
71916;SDS011;59793;46.506;6.674;2024-03-23T14:49:15;6.87;;;1.47;;
71916;SDS011;59793;46.506;6.674;2024-03-23T14:51:43;2.80;;;0.90;;
71916;SDS011;59793;46.506;6.674;2024-03-23T14:54:08;6.50;;;1.43;;
71916;SDS011;59793;46.506;6.674;2024-03-23T14:56:34;6.72;;;1.83;;
71916;SDS011;59793;46.506;6.674;2024-03-23T14:59:00;8.70;;;1.40;;
71916;SDS011;59793;46.506;6.674;2024-03-23T15:01:25;3.63;;;1.40;;
71916;SDS011;59793;46.506;6.674;2024-03-23T15:03:51;5.67;;;1.47;;
71916;SDS011;59793;46.506;6.674;2024-03-23T15:06:18;5.15;;;1.80;;
71916;SDS011;59793;46.506;6.674;2024-03-23T15:08:44;3.50;;;1.00;;
71916;SDS011;59793;46.506;6.674;2024-03-23T15:11:09;4.90;;;1.67;;
71916;SDS011;59793;46.506;6.674;2024-03-23T15:13:35;9.17;;;2.03;;
71916;SDS011;59793;46.506;6.674;2024-03-23T15:16:00;7.47;;;1.48;;
71916;SDS011;59793;46.506;6.674;2024-03-23T15:18:28;4.90;;;1.10;;
71916;SDS011;59793;46.506;6.674;2024-03-23T15:20:55;6.17;;;1.27;;
71916;SDS011;59793;46.506;6.674;2024-03-23T15:23:21;6.10;;;1.48;;
71916;SDS011;59793;46.506;6.674;2024-03-23T15:25:59;3.50;;;1.13;;
71916;SDS011;59793;46.506;6.674;2024-03-23T15:28:27;6.40;;;1.13;;
71916;SDS011;59793;46.506;6.674;2024-03-23T15:31:19;2.90;;;0.80;;
71916;SDS011;59793;46.506;6.674;2024-03-23T15:33:45;5.13;;;1.27;;
71916;SDS011;59793;46.506;6.674;2024-03-23T15:36:10;2.73;;;1.07;;
71916;SDS011;59793;46.506;6.674;2024-03-23T15:38:35;7.30;;;1.52;;
71916;SDS011;59793;46.506;6.674;2024-03-23T15:41:00;4.70;;;1.00;;
71916;SDS011;59793;46.506;6.674;2024-03-23T15:43:26;6.72;;;0.70;;
71916;SDS011;59793;46.506;6.674;2024-03-23T15:45:58;6.73;;;1.30;;
71916;SDS011;59793;46.506;6.674;2024-03-23T15:48:25;5.70;;;1.05;;
71916;SDS011;59793;46.506;6.674;2024-03-23T15:50:53;3.22;;;1.15;;
71916;SDS011;59793;46.506;6.674;2024-03-23T15:53:20;3.70;;;1.15;;
71916;SDS011;59793;46.506;6.674;2024-03-23T15:55:52;4.22;;;1.17;;
71916;SDS011;59793;46.506;6.674;2024-03-23T15:58:21;4.82;;;1.20;;
71916;SDS011;59793;46.506;6.674;2024-03-23T16:01:00;7.77;;;1.83;;
71916;SDS011;59793;46.506;6.674;2024-03-23T16:03:26;2.40;;;1.23;;
71916;SDS011;59793;46.506;6.674;2024-03-23T16:05:54;2.55;;;0.85;;
71916;SDS011;59793;46.506;6.674;2024-03-23T16:08:46;5.72;;;0.90;;
71916;SDS011;59793;46.506;6.674;2024-03-23T16:29:12;4.07;;;1.00;;
71916;SDS011;59793;46.506;6.674;2024-03-23T16:31:38;2.80;;;1.10;;